createdAt,value
2018-03-30T00:00:45.295Z,18.44
2018-03-30T00:01:44.927Z,18.47
2018-03-30T00:02:44.893Z,18.43
2018-03-30T00:03:44.881Z,18.42
2018-03-30T00:04:44.921Z,18.44
2018-03-30T00:05:44.893Z,18.41
2018-03-30T00:06:44.911Z,18.41
2018-03-30T00:07:44.905Z,18.42
2018-03-30T00:08:44.956Z,18.41
2018-03-30T00:09:45.055Z,18.39
2018-03-30T00:10:44.951Z,18.43
2018-03-30T00:11:44.902Z,18.4
2018-03-30T00:12:44.874Z,18.41
2018-03-30T00:13:44.899Z,18.41
2018-03-30T00:14:45.022Z,18.38
2018-03-30T00:15:44.986Z,18.36
2018-03-30T00:16:44.935Z,18.41
2018-03-30T00:17:44.912Z,18.39
2018-03-30T00:18:44.906Z,18.37
2018-03-30T00:19:44.890Z,18.38
2018-03-30T00:20:44.915Z,18.37
2018-03-30T00:21:44.966Z,18.37
2018-03-30T00:22:44.911Z,18.36
2018-03-30T00:23:44.910Z,18.35
2018-03-30T00:24:44.921Z,18.37
2018-03-30T00:25:44.926Z,18.37
2018-03-30T00:26:44.876Z,18.33
2018-03-30T00:27:44.941Z,18.34
2018-03-30T00:28:44.881Z,18.37
2018-03-30T00:29:44.892Z,18.35
2018-03-30T00:30:44.983Z,18.34
2018-03-30T00:31:44.903Z,18.37
2018-03-30T00:32:44.885Z,18.33
2018-03-30T00:33:44.882Z,18.32
2018-03-30T00:34:44.986Z,18.34
2018-03-30T00:35:44.908Z,18.33
2018-03-30T00:36:44.903Z,18.29
2018-03-30T00:37:44.881Z,18.34
2018-03-30T00:38:44.882Z,18.28
2018-03-30T00:39:44.908Z,18.29
2018-03-30T00:40:44.906Z,18.33
2018-03-30T00:41:44.891Z,18.29
2018-03-30T00:42:44.935Z,18.29
2018-03-30T00:43:44.890Z,18.29
2018-03-30T00:44:44.891Z,18.29
2018-03-30T00:45:44.949Z,18.28
2018-03-30T00:46:44.909Z,18.3
2018-03-30T00:47:44.887Z,18.25
2018-03-30T00:48:44.880Z,18.26
2018-03-30T00:49:44.901Z,18.29
2018-03-30T00:50:44.963Z,18.28
2018-03-30T00:51:44.888Z,18.26
2018-03-30T00:52:44.891Z,18.26
2018-03-30T00:53:44.881Z,18.24
2018-03-30T00:54:44.922Z,18.22
2018-03-30T00:55:45.147Z,18.24
2018-03-30T00:56:44.883Z,18.23
2018-03-30T00:57:44.891Z,18.24
2018-03-30T00:58:44.932Z,18.23
2018-03-30T00:59:44.889Z,18.25
2018-03-30T01:00:44.893Z,18.23
2018-03-30T01:01:44.896Z,18.25
2018-03-30T01:02:44.880Z,18.21
2018-03-30T01:03:44.860Z,18.24
2018-03-30T01:04:44.901Z,18.23
2018-03-30T01:05:44.919Z,18.22
2018-03-30T01:06:44.866Z,18.21
2018-03-30T01:07:44.958Z,18.22
2018-03-30T01:08:44.891Z,18.22
2018-03-30T01:09:44.876Z,18.21
2018-03-30T01:10:44.883Z,18.22
2018-03-30T01:11:44.860Z,18.21
2018-03-30T01:12:44.884Z,18.21
2018-03-30T01:13:44.896Z,18.2
2018-03-30T01:14:44.893Z,18.18
2018-03-30T01:15:44.862Z,18.19
2018-03-30T01:16:44.892Z,18.2
2018-03-30T01:17:44.909Z,18.19
2018-03-30T01:18:44.886Z,18.2
2018-03-30T01:19:44.872Z,18.19
2018-03-30T01:20:44.861Z,18.17
2018-03-30T01:21:44.882Z,18.14
2018-03-30T01:22:44.902Z,18.17
2018-03-30T01:23:44.893Z,18.14
2018-03-30T01:24:44.892Z,18.17
2018-03-30T01:25:44.864Z,18.17
2018-03-30T01:26:44.885Z,18.17
2018-03-30T01:27:44.931Z,18.14
2018-03-30T01:28:44.935Z,18.19
2018-03-30T01:29:44.892Z,18.14
2018-03-30T01:30:44.917Z,18.15
2018-03-30T01:31:44.879Z,18.15
2018-03-30T01:32:44.900Z,18.13
2018-03-30T01:33:44.882Z,18.15
2018-03-30T01:34:44.861Z,18.15
2018-03-30T01:35:44.872Z,18.13
2018-03-30T01:36:44.866Z,18.14
2018-03-30T01:37:44.871Z,18.15
2018-03-30T01:38:44.868Z,18.13
2018-03-30T01:39:44.875Z,18.13
2018-03-30T01:40:44.872Z,18.12
2018-03-30T01:41:44.872Z,18.11
2018-03-30T01:42:44.873Z,18.12
2018-03-30T01:43:44.911Z,18.12
2018-03-30T01:44:44.858Z,18.1
2018-03-30T01:45:44.901Z,18.13
2018-03-30T01:46:44.913Z,18.12
2018-03-30T01:47:44.867Z,18.14
2018-03-30T01:48:44.898Z,18.12
2018-03-30T01:49:44.864Z,18.12
2018-03-30T01:50:44.888Z,18.1
2018-03-30T01:51:44.858Z,18.11
2018-03-30T01:52:44.897Z,18.12
2018-03-30T01:53:44.902Z,18.1
2018-03-30T01:54:44.863Z,18.1
2018-03-30T01:55:44.895Z,18.13
2018-03-30T01:56:44.861Z,18.11
2018-03-30T01:57:44.914Z,18.12
2018-03-30T01:58:44.874Z,18.12
2018-03-30T01:59:44.933Z,18.11
2018-03-30T02:00:44.876Z,18.09
2018-03-30T02:01:44.909Z,18.11
2018-03-30T02:02:44.857Z,18.11
2018-03-30T02:03:44.911Z,18.1
2018-03-30T02:04:44.861Z,18.11
2018-03-30T02:05:44.909Z,18.11
2018-03-30T02:06:44.895Z,18.08
2018-03-30T02:07:44.934Z,18.12
2018-03-30T02:08:44.870Z,18.08
2018-03-30T02:09:44.936Z,18.09
2018-03-30T02:10:44.963Z,18.09
2018-03-30T02:11:44.878Z,18.11
2018-03-30T02:12:44.886Z,18.09
2018-03-30T02:13:44.854Z,18.1
2018-03-30T02:14:44.880Z,18.09
2018-03-30T02:15:44.978Z,18.1
2018-03-30T02:16:44.984Z,18.09
2018-03-30T02:17:44.858Z,18.08
2018-03-30T02:18:44.883Z,18.08
2018-03-30T02:19:45.130Z,18.09
2018-03-30T02:20:44.858Z,18.07
2018-03-30T02:21:44.894Z,18.05
2018-03-30T02:22:44.857Z,18.06
2018-03-30T02:23:44.897Z,18.08
2018-03-30T02:24:44.890Z,18.08
2018-03-30T02:25:44.841Z,18.08
2018-03-30T02:26:44.861Z,18.06
2018-03-30T02:27:44.871Z,18.07
2018-03-30T02:28:44.850Z,18.07
2018-03-30T02:29:44.948Z,18.06
2018-03-30T02:30:44.909Z,18.05
2018-03-30T02:31:44.862Z,18.06
2018-03-30T02:32:44.872Z,18.04
2018-03-30T02:33:44.866Z,18.05
2018-03-30T02:34:44.875Z,18.07
2018-03-30T02:35:44.879Z,18.06
2018-03-30T02:36:44.880Z,18.04
2018-03-30T02:37:44.871Z,18.04
2018-03-30T02:38:44.840Z,18.04
2018-03-30T02:39:44.889Z,18.04
2018-03-30T02:40:44.884Z,18.04
2018-03-30T02:41:44.861Z,18.06
2018-03-30T02:42:44.837Z,18.02
2018-03-30T02:43:44.857Z,18.02
2018-03-30T02:44:44.893Z,18.03
2018-03-30T02:45:44.867Z,18.03
2018-03-30T02:46:44.890Z,18.05
2018-03-30T02:47:44.857Z,18.05
2018-03-30T02:48:44.865Z,18.03
2018-03-30T02:49:44.868Z,18.03
2018-03-30T02:50:44.847Z,17.99
2018-03-30T02:51:44.851Z,18
2018-03-30T02:52:44.873Z,18.02
2018-03-30T02:53:44.870Z,18.02
2018-03-30T02:54:45.189Z,18.02
2018-03-30T02:55:44.879Z,18.03
2018-03-30T02:56:44.908Z,18
2018-03-30T02:57:44.834Z,18.02
2018-03-30T02:58:44.850Z,17.99
2018-03-30T02:59:44.941Z,18
2018-03-30T03:00:44.871Z,18.02
2018-03-30T03:01:44.845Z,17.99
2018-03-30T03:02:44.855Z,17.97
2018-03-30T03:03:44.846Z,17.98
2018-03-30T03:04:44.869Z,17.99
2018-03-30T03:05:44.877Z,17.99
2018-03-30T03:06:44.854Z,17.99
2018-03-30T03:07:44.855Z,17.99
2018-03-30T03:08:44.849Z,17.96
2018-03-30T03:09:44.855Z,17.99
2018-03-30T03:10:44.831Z,17.97
2018-03-30T03:11:44.840Z,17.97
2018-03-30T03:12:44.821Z,17.98
2018-03-30T03:13:44.848Z,17.96
2018-03-30T03:14:44.849Z,17.95
2018-03-30T03:15:44.828Z,17.95
2018-03-30T03:16:44.862Z,17.95
2018-03-30T03:17:44.848Z,17.94
2018-03-30T03:18:44.853Z,17.92
2018-03-30T03:19:44.845Z,17.95
2018-03-30T03:20:44.855Z,17.93
2018-03-30T03:21:44.915Z,17.95
2018-03-30T03:22:44.847Z,17.95
2018-03-30T03:23:44.874Z,17.91
2018-03-30T03:24:44.871Z,17.94
2018-03-30T03:25:44.847Z,17.96
2018-03-30T03:26:45.142Z,17.93
2018-03-30T03:27:44.838Z,17.93
2018-03-30T03:28:45.079Z,17.93
2018-03-30T03:29:44.863Z,17.94
2018-03-30T03:30:44.893Z,17.91
2018-03-30T03:31:44.876Z,17.9
2018-03-30T03:32:44.851Z,17.91
2018-03-30T03:33:44.839Z,17.91
2018-03-30T03:34:44.822Z,17.92
2018-03-30T03:35:44.832Z,17.93
2018-03-30T03:36:44.841Z,17.93
2018-03-30T03:37:44.853Z,17.95
2018-03-30T03:38:44.867Z,17.94
2018-03-30T03:39:44.831Z,17.95
2018-03-30T03:40:44.824Z,17.93
2018-03-30T03:41:44.866Z,17.9
2018-03-30T03:42:44.825Z,17.9
2018-03-30T03:43:44.820Z,17.91
2018-03-30T03:44:44.837Z,17.88
2018-03-30T03:45:44.829Z,17.9
2018-03-30T03:46:44.859Z,17.92
2018-03-30T03:47:44.851Z,17.91
2018-03-30T03:48:44.817Z,17.89
2018-03-30T03:49:44.828Z,17.91
2018-03-30T03:50:44.822Z,17.83
2018-03-30T03:51:44.830Z,17.87
2018-03-30T03:52:44.819Z,17.85
2018-03-30T03:53:44.830Z,17.84
2018-03-30T03:54:44.810Z,17.84
2018-03-30T03:55:44.824Z,17.87
2018-03-30T03:56:44.866Z,17.85
2018-03-30T03:57:44.844Z,17.88
2018-03-30T03:58:44.827Z,17.88
2018-03-30T03:59:44.819Z,17.88
2018-03-30T04:00:44.829Z,17.92
2018-03-30T04:01:44.897Z,17.92
2018-03-30T04:02:44.867Z,17.93
2018-03-30T04:03:44.826Z,17.91
2018-03-30T04:04:44.866Z,17.95
2018-03-30T04:05:44.827Z,17.95
2018-03-30T04:06:44.818Z,17.97
2018-03-30T04:07:44.842Z,17.97
2018-03-30T04:08:44.834Z,17.98
2018-03-30T04:09:44.845Z,17.99
2018-03-30T04:10:44.842Z,17.99
2018-03-30T04:11:44.848Z,18.02
2018-03-30T04:12:44.838Z,18.04
2018-03-30T04:13:44.831Z,18.08
2018-03-30T04:14:44.798Z,18.08
2018-03-30T04:15:44.860Z,18.09
2018-03-30T04:16:44.946Z,18.08
2018-03-30T04:17:44.987Z,18.15
2018-03-30T04:18:44.844Z,18.17
2018-03-30T04:19:44.821Z,18.15
2018-03-30T04:20:44.841Z,18.18
2018-03-30T04:21:44.983Z,18.18
2018-03-30T04:22:44.845Z,18.21
2018-03-30T04:23:44.821Z,18.24
2018-03-30T04:24:44.818Z,18.24
2018-03-30T04:25:44.827Z,18.26
2018-03-30T04:26:44.843Z,18.29
2018-03-30T04:27:44.812Z,18.3
2018-03-30T04:28:44.816Z,18.3
2018-03-30T04:29:44.814Z,18.32
2018-03-30T04:30:44.822Z,18.35
2018-03-30T04:31:44.966Z,18.37
2018-03-30T04:32:44.878Z,18.37
2018-03-30T04:33:44.791Z,18.39
2018-03-30T04:34:44.812Z,18.39
2018-03-30T04:35:44.812Z,18.39
2018-03-30T04:36:44.839Z,18.44
2018-03-30T04:37:44.849Z,18.43
2018-03-30T04:38:44.815Z,18.44
2018-03-30T04:39:44.807Z,18.49
2018-03-30T04:40:44.832Z,18.48
2018-03-30T04:41:44.814Z,18.5
2018-03-30T04:42:44.830Z,18.53
2018-03-30T04:43:44.806Z,18.51
2018-03-30T04:44:44.812Z,18.54
2018-03-30T04:45:44.809Z,18.52
2018-03-30T04:46:44.814Z,18.57
2018-03-30T04:47:44.856Z,18.56
2018-03-30T04:48:44.799Z,18.58
2018-03-30T04:49:44.799Z,18.61
2018-03-30T04:50:44.805Z,18.63
2018-03-30T04:51:44.855Z,18.62
2018-03-30T04:52:44.852Z,18.62
2018-03-30T04:53:44.829Z,18.64
2018-03-30T04:54:44.805Z,18.65
2018-03-30T04:55:44.818Z,18.66
2018-03-30T04:56:44.826Z,18.67
2018-03-30T04:57:44.814Z,18.69
2018-03-30T04:58:44.805Z,18.69
2018-03-30T04:59:44.837Z,18.72
2018-03-30T05:00:44.787Z,18.72
2018-03-30T05:01:44.840Z,18.72
2018-03-30T05:02:44.830Z,18.74
2018-03-30T05:03:44.791Z,18.76
2018-03-30T05:04:44.797Z,18.79
2018-03-30T05:05:44.801Z,18.76
2018-03-30T05:06:44.870Z,18.8
2018-03-30T05:07:44.823Z,18.78
2018-03-30T05:08:44.814Z,18.79
2018-03-30T05:09:44.856Z,18.83
2018-03-30T05:10:44.806Z,18.82
2018-03-30T05:11:44.828Z,18.85
2018-03-30T05:12:44.835Z,18.83
2018-03-30T05:13:44.797Z,18.84
2018-03-30T05:14:44.803Z,18.86
2018-03-30T05:15:44.810Z,18.89
2018-03-30T05:16:44.811Z,18.88
2018-03-30T05:17:44.798Z,18.92
2018-03-30T05:18:44.834Z,18.92
2018-03-30T05:19:44.795Z,18.92
2018-03-30T05:20:44.807Z,18.95
2018-03-30T05:21:44.869Z,18.95
2018-03-30T05:22:44.865Z,18.98
2018-03-30T05:23:44.805Z,18.96
2018-03-30T05:24:44.838Z,18.99
2018-03-30T05:25:44.794Z,19
2018-03-30T05:26:44.832Z,18.99
2018-03-30T05:27:44.809Z,19.01
2018-03-30T05:28:44.807Z,19.05
2018-03-30T05:29:44.794Z,19.03
2018-03-30T05:30:44.807Z,19.05
2018-03-30T05:31:44.852Z,19.07
2018-03-30T05:32:44.788Z,19.06
2018-03-30T05:33:44.905Z,19.08
2018-03-30T05:34:44.798Z,19.09
2018-03-30T05:35:44.789Z,19.11
2018-03-30T05:36:44.796Z,19.1
2018-03-30T05:37:44.791Z,19.09
2018-03-30T05:38:44.787Z,19.13
2018-03-30T05:39:44.956Z,19.1
2018-03-30T05:40:44.837Z,19.12
2018-03-30T05:41:44.789Z,19.14
2018-03-30T05:42:44.787Z,19.15
2018-03-30T05:43:44.816Z,19.14
2018-03-30T05:44:44.793Z,19.15
2018-03-30T05:45:44.789Z,19.15
2018-03-30T05:46:44.862Z,19.15
2018-03-30T05:47:44.782Z,19.17
2018-03-30T05:48:44.769Z,19.16
2018-03-30T05:49:44.794Z,19.17
2018-03-30T05:50:44.797Z,19.17
2018-03-30T05:51:44.795Z,19.2
2018-03-30T05:52:44.815Z,19.18
2018-03-30T05:53:44.789Z,19.18
2018-03-30T05:54:44.766Z,19.21
2018-03-30T05:55:45.079Z,19.18
2018-03-30T05:56:44.777Z,19.21
2018-03-30T05:57:44.829Z,19.22
2018-03-30T05:58:44.822Z,19.2
2018-03-30T05:59:44.829Z,19.22
2018-03-30T06:00:44.818Z,19.23
2018-03-30T06:01:44.792Z,19.23
2018-03-30T06:02:44.810Z,19.24
2018-03-30T06:03:44.817Z,19.24
2018-03-30T06:04:44.779Z,19.26
2018-03-30T06:05:44.826Z,19.23
2018-03-30T06:06:44.827Z,19.26
2018-03-30T06:07:44.779Z,19.25
2018-03-30T06:08:44.782Z,19.25
2018-03-30T06:09:44.780Z,19.25
2018-03-30T06:10:44.807Z,19.26
2018-03-30T06:11:44.804Z,19.26
2018-03-30T06:12:44.773Z,19.29
2018-03-30T06:13:44.801Z,19.27
2018-03-30T06:14:44.791Z,19.26
2018-03-30T06:15:44.773Z,19.28
2018-03-30T06:16:44.822Z,19.28
2018-03-30T06:17:44.893Z,19.28
2018-03-30T06:18:44.909Z,19.26
2018-03-30T06:19:44.774Z,19.26
2018-03-30T06:20:44.849Z,19.28
2018-03-30T06:21:44.830Z,19.27
2018-03-30T06:22:44.824Z,19.28
2018-03-30T06:23:44.768Z,19.27
2018-03-30T06:24:44.777Z,19.28
2018-03-30T06:25:44.777Z,19.28
2018-03-30T06:26:44.906Z,19.29
2018-03-30T06:27:44.788Z,19.29
2018-03-30T06:28:44.867Z,19.29
2018-03-30T06:29:44.782Z,19.3
2018-03-30T06:30:44.817Z,19.28
2018-03-30T06:31:44.780Z,19.29
2018-03-30T06:32:44.930Z,19.3
2018-03-30T06:33:44.757Z,19.3
2018-03-30T06:34:44.768Z,19.3
2018-03-30T06:35:44.788Z,19.31
2018-03-30T06:36:44.781Z,19.31
2018-03-30T06:37:44.804Z,19.3
2018-03-30T06:38:44.781Z,19.32
2018-03-30T06:39:44.799Z,19.31
2018-03-30T06:40:44.793Z,19.31
2018-03-30T06:41:44.778Z,19.36
2018-03-30T06:42:44.781Z,19.33
2018-03-30T06:43:44.769Z,19.33
2018-03-30T06:44:44.783Z,19.33
2018-03-30T06:45:44.802Z,19.35
2018-03-30T06:46:44.793Z,19.36
2018-03-30T06:47:45.033Z,19.35
2018-03-30T06:48:44.763Z,19.35
2018-03-30T06:49:44.759Z,19.36
2018-03-30T06:50:44.776Z,19.37
2018-03-30T06:51:44.763Z,19.37
2018-03-30T06:52:44.813Z,19.38
2018-03-30T06:53:44.787Z,19.36
2018-03-30T06:54:44.762Z,19.37
2018-03-30T06:55:44.796Z,19.38
2018-03-30T06:56:44.815Z,19.39
2018-03-30T06:57:45.118Z,19.4
2018-03-30T06:58:44.784Z,19.41
2018-03-30T06:59:44.780Z,19.42
2018-03-30T07:00:44.765Z,19.41
2018-03-30T07:01:44.768Z,19.39
2018-03-30T07:02:44.837Z,19.42
2018-03-30T07:03:44.824Z,19.42
2018-03-30T07:04:44.782Z,19.43
2018-03-30T07:05:44.776Z,19.41
2018-03-30T07:06:44.732Z,19.45
2018-03-30T07:07:44.774Z,19.43
2018-03-30T07:08:44.770Z,19.43
2018-03-30T07:09:44.750Z,19.44
2018-03-30T07:10:44.776Z,19.46
2018-03-30T07:11:44.762Z,19.48
2018-03-30T07:12:44.844Z,19.47
2018-03-30T07:13:44.761Z,19.47
2018-03-30T07:14:44.768Z,19.5
2018-03-30T07:15:44.776Z,19.48
2018-03-30T07:16:44.768Z,19.5
2018-03-30T07:17:44.777Z,19.5
2018-03-30T07:18:44.782Z,19.51
2018-03-30T07:19:44.761Z,19.51
2018-03-30T07:20:44.755Z,19.52
2018-03-30T07:21:44.769Z,19.52
2018-03-30T07:22:44.769Z,19.53
2018-03-30T07:23:44.750Z,19.52
2018-03-30T07:24:44.753Z,19.55
2018-03-30T07:25:44.812Z,19.56
2018-03-30T07:26:44.759Z,19.54
2018-03-30T07:27:44.759Z,19.56
2018-03-30T07:28:44.756Z,19.55
2018-03-30T07:29:44.769Z,19.57
2018-03-30T07:30:44.747Z,19.58
2018-03-30T07:31:44.761Z,19.57
2018-03-30T07:32:44.754Z,19.59
2018-03-30T07:33:44.775Z,19.59
2018-03-30T07:34:44.802Z,19.59
2018-03-30T07:35:44.777Z,19.61
2018-03-30T07:36:44.737Z,19.6
2018-03-30T07:37:44.758Z,19.63
2018-03-30T07:38:44.900Z,19.62
2018-03-30T07:39:44.754Z,19.62
2018-03-30T07:40:44.747Z,19.65
2018-03-30T07:41:44.758Z,19.65
2018-03-30T07:42:44.747Z,19.66
2018-03-30T07:43:44.974Z,19.66
2018-03-30T07:44:44.749Z,19.67
2018-03-30T07:45:44.737Z,19.67
2018-03-30T07:46:44.802Z,19.67
2018-03-30T07:47:45.161Z,19.67
2018-03-30T07:48:44.760Z,19.68
2018-03-30T07:49:44.778Z,19.67
2018-03-30T07:50:44.760Z,19.68
2018-03-30T07:51:44.793Z,19.7
2018-03-30T07:52:44.758Z,19.69
2018-03-30T07:53:44.738Z,19.68
2018-03-30T07:54:44.776Z,19.68
2018-03-30T07:55:44.754Z,19.68
2018-03-30T07:56:44.738Z,19.7
2018-03-30T07:57:44.784Z,19.71
2018-03-30T07:58:44.760Z,19.71
2018-03-30T07:59:44.749Z,19.71
2018-03-30T08:00:44.799Z,19.69
2018-03-30T08:01:44.737Z,19.71
2018-03-30T08:02:44.747Z,19.72
2018-03-30T08:03:44.782Z,19.71
2018-03-30T08:04:44.821Z,19.71
2018-03-30T08:05:44.750Z,19.71
2018-03-30T08:06:44.770Z,19.71
2018-03-30T08:07:44.765Z,19.71
2018-03-30T08:08:44.752Z,19.71
2018-03-30T08:09:44.792Z,19.71
2018-03-30T08:10:44.733Z,19.74
2018-03-30T08:11:44.758Z,19.73
2018-03-30T08:12:44.757Z,19.72
2018-03-30T08:13:44.766Z,19.72
2018-03-30T08:14:44.910Z,19.71
2018-03-30T08:15:44.755Z,19.73
2018-03-30T08:16:44.751Z,19.71
2018-03-30T08:17:45.136Z,19.73
2018-03-30T08:18:45.174Z,19.73
2018-03-30T08:19:45.575Z,19.74
2018-03-30T08:20:44.737Z,19.74
2018-03-30T08:21:44.837Z,19.71
2018-03-30T08:22:44.767Z,19.74
2018-03-30T08:23:44.761Z,19.74
2018-03-30T08:24:44.737Z,19.74
2018-03-30T08:25:44.748Z,19.73
2018-03-30T08:26:44.793Z,19.73
2018-03-30T08:27:44.736Z,19.77
2018-03-30T08:28:44.775Z,19.76
2018-03-30T08:29:44.736Z,19.74
2018-03-30T08:30:44.769Z,19.77
2018-03-30T08:31:44.744Z,19.76
2018-03-30T08:32:45.071Z,19.79
2018-03-30T08:33:44.751Z,19.79
2018-03-30T08:34:44.762Z,19.79
2018-03-30T08:35:44.786Z,19.79
2018-03-30T08:36:44.773Z,19.79
2018-03-30T08:37:44.739Z,19.8
2018-03-30T08:38:45.165Z,19.8
2018-03-30T08:39:45.328Z,19.81
2018-03-30T08:40:44.735Z,19.82
2018-03-30T08:41:44.780Z,19.8
2018-03-30T08:42:44.735Z,19.81
2018-03-30T08:43:44.734Z,19.79
2018-03-30T08:44:44.817Z,19.79
2018-03-30T08:45:44.786Z,19.79
2018-03-30T08:46:44.738Z,19.82
2018-03-30T08:47:44.754Z,19.82
2018-03-30T08:48:44.798Z,19.83
2018-03-30T08:49:44.887Z,19.68
2018-03-30T08:50:44.736Z,19.55
2018-03-30T08:51:44.766Z,19.48
2018-03-30T08:52:44.743Z,19.32
2018-03-30T08:53:44.744Z,19.33
2018-03-30T08:54:44.762Z,19.36
2018-03-30T08:55:44.740Z,19.38
2018-03-30T08:56:44.834Z,19.4
2018-03-30T08:57:44.747Z,19.43
2018-03-30T08:58:44.757Z,19.46
2018-03-30T08:59:44.740Z,19.52
2018-03-30T09:00:44.764Z,19.53
2018-03-30T09:01:44.726Z,19.57
2018-03-30T09:02:44.742Z,19.59
2018-03-30T09:03:44.750Z,19.61
2018-03-30T09:04:44.755Z,19.62
2018-03-30T09:05:44.809Z,19.67
2018-03-30T09:06:45.565Z,19.7
2018-03-30T09:07:44.913Z,19.73
2018-03-30T09:08:44.722Z,19.72
2018-03-30T09:09:44.860Z,19.74
2018-03-30T09:10:44.879Z,19.76
2018-03-30T09:11:44.743Z,19.82
2018-03-30T09:12:44.952Z,19.82
2018-03-30T09:13:44.763Z,19.86
2018-03-30T09:14:44.739Z,19.88
2018-03-30T09:15:44.771Z,19.87
2018-03-30T09:16:44.725Z,19.9
2018-03-30T09:17:44.772Z,19.91
2018-03-30T09:18:44.733Z,19.94
2018-03-30T09:19:44.758Z,19.96
2018-03-30T09:20:44.772Z,19.99
2018-03-30T09:21:44.814Z,19.99
2018-03-30T09:22:44.747Z,20.01
2018-03-30T09:23:44.793Z,20.02
2018-03-30T09:24:45.055Z,20.01
2018-03-30T09:25:44.868Z,20.03
2018-03-30T09:26:47.159Z,20.03
2018-03-30T09:27:44.881Z,20.04
2018-03-30T09:28:44.772Z,20.07
2018-03-30T09:29:45.062Z,20.07
2018-03-30T09:30:44.830Z,20.07
2018-03-30T09:31:45.034Z,20.09
2018-03-30T09:32:45.744Z,20.1
2018-03-30T09:33:44.976Z,20.09
2018-03-30T09:34:45.035Z,20.13
2018-03-30T09:35:45.005Z,20.12
2018-03-30T09:36:45.047Z,20.12
2018-03-30T09:37:45.090Z,20.13
2018-03-30T09:38:48.385Z,20.13
2018-03-30T09:39:45.053Z,20.11
2018-03-30T09:40:44.994Z,20.15
2018-03-30T09:41:44.901Z,20.14
2018-03-30T09:42:44.965Z,20.16
2018-03-30T09:43:44.996Z,20.18
2018-03-30T09:44:45.111Z,20.19
2018-03-30T09:45:45.161Z,20.19
2018-03-30T09:46:44.993Z,20.19
2018-03-30T09:47:46.071Z,20.19
2018-03-30T09:48:45.145Z,20.19
2018-03-30T09:49:45.533Z,20.24
2018-03-30T09:50:44.931Z,20.21
2018-03-30T09:51:45.151Z,20.24
2018-03-30T09:52:46.961Z,20.24
2018-03-30T09:53:44.876Z,20.26
2018-03-30T09:54:45.494Z,20.29
2018-03-30T09:55:44.849Z,20.3
2018-03-30T09:56:44.948Z,20.28
2018-03-30T09:57:44.824Z,20.28
2018-03-30T09:58:44.904Z,20.29
2018-03-30T09:59:44.783Z,20.27
2018-03-30T10:00:44.782Z,20.27
2018-03-30T10:01:44.731Z,20.29
2018-03-30T10:02:44.745Z,20.25
2018-03-30T10:03:44.724Z,20.24
2018-03-30T10:04:44.734Z,20.28
2018-03-30T10:05:44.704Z,20.29
2018-03-30T10:06:44.707Z,20.24
2018-03-30T10:07:44.816Z,20.27
2018-03-30T10:08:44.721Z,20.24
2018-03-30T10:09:44.692Z,20.22
2018-03-30T10:10:44.719Z,20.25
2018-03-30T10:11:45.012Z,20.24
2018-03-30T10:12:44.769Z,20.2
2018-03-30T10:13:44.726Z,20.24
2018-03-30T10:14:44.709Z,20.24
2018-03-30T10:15:44.778Z,20.27
2018-03-30T10:16:44.717Z,20.26
2018-03-30T10:17:44.734Z,20.28
2018-03-30T10:18:44.795Z,20.27
2018-03-30T10:19:44.817Z,20.27
2018-03-30T10:20:44.833Z,20.27
2018-03-30T10:21:44.732Z,20.25
2018-03-30T10:22:44.750Z,20.25
2018-03-30T10:23:44.709Z,20.27
2018-03-30T10:24:44.697Z,20.25
2018-03-30T10:25:44.768Z,20.27
2018-03-30T10:26:44.704Z,20.28
2018-03-30T10:27:44.873Z,20.27
2018-03-30T10:28:44.713Z,20.31
2018-03-30T10:29:44.776Z,20.3
2018-03-30T10:30:44.750Z,20.29
2018-03-30T10:31:44.706Z,20.3
2018-03-30T10:32:44.784Z,20.3
2018-03-30T10:33:45.008Z,20.31
2018-03-30T10:34:44.703Z,20.34
2018-03-30T10:35:44.717Z,20.33
2018-03-30T10:36:44.763Z,20.34
2018-03-30T10:37:44.767Z,20.34
2018-03-30T10:38:44.778Z,20.32
2018-03-30T10:39:44.708Z,20.33
2018-03-30T10:40:44.738Z,20.34
2018-03-30T10:41:44.708Z,20.33
2018-03-30T10:42:44.680Z,20.33
2018-03-30T10:43:44.725Z,20.36
2018-03-30T10:44:44.725Z,20.34
2018-03-30T10:45:44.686Z,20.36
2018-03-30T10:46:44.742Z,20.37
2018-03-30T10:47:44.729Z,20.39
2018-03-30T10:48:44.986Z,20.4
2018-03-30T10:49:44.726Z,20.42
2018-03-30T10:50:44.734Z,20.4
2018-03-30T10:51:44.733Z,20.36
2018-03-30T10:52:44.736Z,20.4
2018-03-30T10:53:44.685Z,20.39
2018-03-30T10:54:44.784Z,20.4
2018-03-30T10:55:44.757Z,20.4
2018-03-30T10:56:44.699Z,20.4
2018-03-30T10:57:44.721Z,20.37
2018-03-30T10:58:44.712Z,20.37
2018-03-30T10:59:44.716Z,20.34
2018-03-30T11:00:44.842Z,20.35
2018-03-30T11:01:44.687Z,20.36
2018-03-30T11:02:44.702Z,20.34
2018-03-30T11:03:44.736Z,20.34
2018-03-30T11:04:44.695Z,20.35
2018-03-30T11:05:44.815Z,20.35
2018-03-30T11:06:44.745Z,20.34
2018-03-30T11:07:44.692Z,20.35
2018-03-30T11:08:44.691Z,20.32
2018-03-30T11:09:44.772Z,20.31
2018-03-30T11:10:44.707Z,20.31
2018-03-30T11:11:44.741Z,20.29
2018-03-30T11:12:44.711Z,20.29
2018-03-30T11:13:44.703Z,20.31
2018-03-30T11:14:44.711Z,20.3
2018-03-30T11:15:44.772Z,20.3
2018-03-30T11:16:44.730Z,20.29
2018-03-30T11:17:44.682Z,20.28
2018-03-30T11:18:44.689Z,20.28
2018-03-30T11:19:44.688Z,20.28
2018-03-30T11:20:44.689Z,20.28
2018-03-30T11:21:44.715Z,20.27
2018-03-30T11:22:44.695Z,20.27
2018-03-30T11:23:44.702Z,20.28
2018-03-30T11:24:44.691Z,20.25
2018-03-30T11:25:44.702Z,20.26
2018-03-30T11:26:44.720Z,20.27
2018-03-30T11:27:44.712Z,20.26
2018-03-30T11:28:44.686Z,20.24
2018-03-30T11:29:44.685Z,20.26
2018-03-30T11:30:44.687Z,20.24
2018-03-30T11:31:44.707Z,20.21
2018-03-30T11:32:44.684Z,20.22
2018-03-30T11:33:44.689Z,20.24
2018-03-30T11:34:44.688Z,20.24
2018-03-30T11:35:44.698Z,20.25
2018-03-30T11:36:44.852Z,20.2
2018-03-30T11:37:44.746Z,20.22
2018-03-30T11:38:44.678Z,20.22
2018-03-30T11:39:44.715Z,20.24
2018-03-30T11:40:44.750Z,20.24
2018-03-30T11:41:44.709Z,20.25
2018-03-30T11:42:44.700Z,20.24
2018-03-30T11:43:44.682Z,20.24
2018-03-30T11:44:44.976Z,20.24
2018-03-30T11:45:44.703Z,20.25
2018-03-30T11:46:44.757Z,20.22
2018-03-30T11:47:44.681Z,20.24
2018-03-30T11:48:44.684Z,20.25
2018-03-30T11:49:44.689Z,20.24
2018-03-30T11:50:44.679Z,20.24
2018-03-30T11:51:44.739Z,20.25
2018-03-30T11:52:44.674Z,20.24
2018-03-30T11:53:44.681Z,20.21
2018-03-30T11:54:44.701Z,20.25
2018-03-30T11:55:44.751Z,20.25
2018-03-30T11:56:44.698Z,20.24
2018-03-30T11:57:44.691Z,20.24
2018-03-30T11:58:44.753Z,20.21
2018-03-30T11:59:44.666Z,20.24
2018-03-30T12:00:44.677Z,20.22
2018-03-30T12:01:44.693Z,20.22
2018-03-30T12:02:44.688Z,20.22
2018-03-30T12:03:44.667Z,20.21
2018-03-30T12:04:44.672Z,20.21
2018-03-30T12:05:44.741Z,20.21
2018-03-30T12:06:44.703Z,20.19
2018-03-30T12:07:44.668Z,20.19
2018-03-30T12:08:44.673Z,20.2
2018-03-30T12:09:44.666Z,20.2
2018-03-30T12:10:44.663Z,20.2
2018-03-30T12:11:44.780Z,20.19
2018-03-30T12:12:44.662Z,20.19
2018-03-30T12:13:44.664Z,20.18
2018-03-30T12:14:44.688Z,20.18
2018-03-30T12:15:44.681Z,20.16
2018-03-30T12:16:44.698Z,20.15
2018-03-30T12:17:44.703Z,20.18
2018-03-30T12:18:44.663Z,20.18
2018-03-30T12:19:44.689Z,20.16
2018-03-30T12:20:44.777Z,20.17
2018-03-30T12:21:44.802Z,20.16
2018-03-30T12:22:44.678Z,20.15
2018-03-30T12:23:44.674Z,20.15
2018-03-30T12:24:44.693Z,20.16
2018-03-30T12:25:44.668Z,20.15
2018-03-30T12:26:44.672Z,20.16
2018-03-30T12:27:44.738Z,20.15
2018-03-30T12:28:44.657Z,20.13
2018-03-30T12:29:44.664Z,20.16
2018-03-30T12:30:44.745Z,20.12
2018-03-30T12:31:44.675Z,20.11
2018-03-30T12:32:44.683Z,20.09
2018-03-30T12:33:44.692Z,20.12
2018-03-30T12:34:44.671Z,20.13
2018-03-30T12:35:44.679Z,20.13
2018-03-30T12:36:44.691Z,20.16
2018-03-30T12:37:44.706Z,20.15
2018-03-30T12:38:44.658Z,20.17
2018-03-30T12:39:44.688Z,20.19
2018-03-30T12:40:44.675Z,20.2
2018-03-30T12:41:44.696Z,20.2
2018-03-30T12:42:44.722Z,20.21
2018-03-30T12:43:44.676Z,20.25
2018-03-30T12:44:44.690Z,20.24
2018-03-30T12:45:44.677Z,20.27
2018-03-30T12:46:44.965Z,20.27
2018-03-30T12:47:44.693Z,20.27
2018-03-30T12:48:44.725Z,20.28
2018-03-30T12:49:44.669Z,20.29
2018-03-30T12:50:44.652Z,20.27
2018-03-30T12:51:44.657Z,20.29
2018-03-30T12:52:44.666Z,20.3
2018-03-30T12:53:44.690Z,20.29
2018-03-30T12:54:44.755Z,20.31
2018-03-30T12:55:44.667Z,20.32